Hakuhomaru — JJ4011 — position and weather

sailwx.info

Track history (hours):
 
Tides and Currents Weather Stations Pressure Air Temp Water Temp Dewpoint Dewpoint Depression Visibility Wind Speed Wind Dir Waves Ship Positions

Hakuhomaru

Last reported at 2017-Mar-23 07:33 UTC. Time now 2017-Mar-23 18:28 UTC.
Position N 34°41' E 135°16'.

Length 38 m; draft 3.3 m.

Type: Tug. MMSI: 431401584.

Date/timePositionNaut miles runAvg speedWind from/ knotsBaromVisibWave heightAir tempDewpointWater temp
2017-Mar-23 07:33N 34°41' E 135°16'2 1.9
2017-Mar-23 06:33N 34°41' E 135°18'2 2.5
2017-Mar-23 05:33N 34°41' E 135°15'3 2.6
2017-Mar-23 04:33N 34°41' E 135°12'0 0.0
2017-Mar-23 03:33N 34°41' E 135°12'0 0.0
2017-Mar-23 02:33N 34°41' E 135°12'2 2.3
2017-Mar-23 01:33N 34°39' E 135°15'1 1.4
2017-Mar-23 00:33N 34°39' E 135°16'1 1.0
2017-Mar-22 23:33N 34°39' E 135°15'2 2.0
2017-Mar-22 22:33N 34°41' E 135°15'1 1.4
2017-Mar-22 21:33N 34°41' E 135°13'1 0.1
2017-Mar-22 10:21N 34°41' E 135°12'4 5.0
2017-Mar-22 09:33N 34°41' E 135°17'1 1.4
2017-Mar-22 08:33N 34°40' E 135°18'2 1.8
2017-Mar-22 07:33N 34°41' E 135°16'3 2.8
2017-Mar-22 06:33N 34°41' E 135°12'0 0.0
2017-Mar-22 05:33N 34°41' E 135°12'0 0.0
2017-Mar-22 04:33N 34°41' E 135°12'0 0.0
2017-Mar-22 03:33N 34°41' E 135°12'0 0.0
2017-Mar-22 02:33N 34°41' E 135°12'0 0.0
2017-Mar-22 01:33N 34°41' E 135°12'0 0.0
2017-Mar-22 00:33N 34°41' E 135°12'0 0.1
2017-Mar-21 23:33N 34°40' E 135°12'5 5.2
2017-Mar-21 22:33N 34°40' E 135°18'5 4.7
2017-Mar-21 21:33N 34°41' E 135°13'1 0.1
2017-Mar-21 09:34N 34°41' E 135°12'0 0.0
2017-Mar-21 08:13N 34°41' E 135°12'6 8.5
2017-Mar-21 07:33N 34°40' E 135°19'5 5.5
2017-Mar-21 06:33N 34°37' E 135°25'7 6.9
2017-Mar-21 05:33N 34°31' E 135°21'6 3.8
2017-Mar-21 04:06N 34°26' E 135°19'12 7.7
2017-Mar-21 02:33N 34°38' E 135°23'0 0.3
2017-Mar-21 01:33N 34°38' E 135°23'3 3.4
2017-Mar-21 00:33N 34°40' E 135°20'6 6.3
2017-Mar-20 23:33N 34°41' E 135°12'0 0.0
2017-Mar-20 05:33N 34°41' E 135°12'0 0.0
2017-Mar-20 04:33N 34°41' E 135°12'0 0.0
2017-Mar-20 03:33N 34°41' E 135°12'0 0.0
2017-Mar-20 02:33N 34°41' E 135°12'0 0.0
2017-Mar-20 01:33N 34°41' E 135°12'0 0.0
2017-Mar-20 00:33N 34°41' E 135°12'0 0.0
2017-Mar-19 23:33N 34°41' E 135°12'0 0.0
2017-Mar-19 22:33N 34°41' E 135°12'0 0.0
2017-Mar-19 02:11N 34°41' E 135°12'0 0.0
2017-Mar-19 01:33N 34°41' E 135°12'0 0.0
2017-Mar-19 00:33N 34°41' E 135°12'0 0.0
2017-Mar-18 01:07N 34°41' E 135°12'0 0.0
2017-Mar-18 00:33N 34°41' E 135°12'0 0.0
2017-Mar-15 23:33N 34°41' E 135°12'2 2.0
2017-Mar-15 22:33N 34°41' E 135°14'2 1.9
2017-Mar-15 21:33N 34°41' E 135°17'0 0.0
2017-Mar-15 20:33N 34°41' E 135°17'0 0.0
2017-Mar-15 19:33N 34°41' E 135°17'0 0.0
2017-Mar-15 18:33N 34°41' E 135°17'1 1.0
2017-Mar-15 17:33N 34°41' E 135°18'0 0.3
2017-Mar-15 16:33N 34°41' E 135°17'0 0.0
2017-Mar-15 15:33N 34°41' E 135°17'0 0.0
2017-Mar-15 14:33N 34°41' E 135°17'0 0.0
2017-Mar-15 13:33N 34°41' E 135°17'3 3.2
2017-Mar-15 12:33N 34°40' E 135°14'0 0.0
2017-Mar-15 11:33N 34°40' E 135°14'0 0.0
2017-Mar-15 10:33N 34°40' E 135°14'1 1.3
2017-Mar-15 09:33N 34°39' E 135°15'0 0.3
2017-Mar-15 08:33N 34°39' E 135°15'0 0.0
2017-Mar-15 07:33N 34°39' E 135°15'0 0.3
2017-Mar-15 06:33N 34°39' E 135°15'2 2.3
2017-Mar-15 05:33N 34°41' E 135°12'0 0.0
2017-Mar-15 04:33N 34°41' E 135°12'0 0.0
2017-Mar-15 03:33N 34°41' E 135°12'0 0.0
2017-Mar-15 02:33N 34°41' E 135°12'0 0.0
2017-Mar-15 01:33N 34°41' E 135°12'0 0.0
2017-Mar-15 00:33N 34°41' E 135°12'1 0.8
2017-Mar-14 23:33N 34°41' E 135°13'2 2.4
2017-Mar-14 22:33N 34°42' E 135°16'3 2.8
2017-Mar-14 21:33N 34°41' E 135°12'0 0.4
2017-Mar-14 20:33N 34°41' E 135°12'2 0.2
2017-Mar-14 07:33N 34°39' E 135°15'1 0.5
2017-Mar-14 06:33N 34°39' E 135°15'3 2.8
2017-Mar-14 05:33N 34°41' E 135°12'0 0.3
2017-Mar-14 04:33N 34°41' E 135°12'0 0.0
2017-Mar-14 03:33N 34°41' E 135°12'0 0.0
2017-Mar-14 02:33N 34°41' E 135°12'0 0.2
2017-Mar-14 01:33N 34°40' E 135°12'0 0.2
2017-Mar-14 00:33N 34°41' E 135°12'4 3.9
2017-Mar-13 23:33N 34°41' E 135°17'1 0.9
2017-Mar-13 22:33N 34°40' E 135°18'3 2.7
2017-Mar-13 21:33N 34°41' E 135°14'2 1.9
2017-Mar-13 20:33N 34°41' E 135°12'  
Track history (hours):
 
Tides and Currents Weather Stations Pressure Air Temp Water Temp Dewpoint Dewpoint Depression Visibility Wind Speed Wind Dir Waves Ship Positions

Hakuhomaru

Last reported at 2017-Mar-23 07:33 UTC. Time now 2017-Mar-23 18:28 UTC.
Position N 34°41' E 135°16'.

Length 38 m; draft 3.3 m.

Type: Tug. MMSI: 431401584.

Date/timePositionNaut miles runAvg speedWind from/ knotsBaromVisibWave heightAir tempDewpointWater temp
2017-Mar-23 07:33N 34°41' E 135°16'2 1.9
2017-Mar-23 06:33N 34°41' E 135°18'2 2.5
2017-Mar-23 05:33N 34°41' E 135°15'3 2.6
2017-Mar-23 04:33N 34°41' E 135°12'0 0.0
2017-Mar-23 03:33N 34°41' E 135°12'0 0.0
2017-Mar-23 02:33N 34°41' E 135°12'2 2.3
2017-Mar-23 01:33N 34°39' E 135°15'1 1.4
2017-Mar-23 00:33N 34°39' E 135°16'1 1.0
2017-Mar-22 23:33N 34°39' E 135°15'2 2.0
2017-Mar-22 22:33N 34°41' E 135°15'1 1.4
2017-Mar-22 21:33N 34°41' E 135°13'1 0.1
2017-Mar-22 10:21N 34°41' E 135°12'4 5.0
2017-Mar-22 09:33N 34°41' E 135°17'1 1.4
2017-Mar-22 08:33N 34°40' E 135°18'2 1.8
2017-Mar-22 07:33N 34°41' E 135°16'3 2.8
2017-Mar-22 06:33N 34°41' E 135°12'0 0.0
2017-Mar-22 05:33N 34°41' E 135°12'0 0.0
2017-Mar-22 04:33N 34°41' E 135°12'0 0.0
2017-Mar-22 03:33N 34°41' E 135°12'0 0.0
2017-Mar-22 02:33N 34°41' E 135°12'0 0.0
2017-Mar-22 01:33N 34°41' E 135°12'0 0.0
2017-Mar-22 00:33N 34°41' E 135°12'0 0.1
2017-Mar-21 23:33N 34°40' E 135°12'5 5.2
2017-Mar-21 22:33N 34°40' E 135°18'5 4.7
2017-Mar-21 21:33N 34°41' E 135°13'1 0.1
2017-Mar-21 09:34N 34°41' E 135°12'0 0.0
2017-Mar-21 08:13N 34°41' E 135°12'6 8.5
2017-Mar-21 07:33N 34°40' E 135°19'5 5.5
2017-Mar-21 06:33N 34°37' E 135°25'7 6.9
2017-Mar-21 05:33N 34°31' E 135°21'6 3.8
2017-Mar-21 04:06N 34°26' E 135°19'12 7.7
2017-Mar-21 02:33N 34°38' E 135°23'0 0.3
2017-Mar-21 01:33N 34°38' E 135°23'3 3.4
2017-Mar-21 00:33N 34°40' E 135°20'6 6.3
2017-Mar-20 23:33N 34°41' E 135°12'0 0.0
2017-Mar-20 05:33N 34°41' E 135°12'0 0.0
2017-Mar-20 04:33N 34°41' E 135°12'0 0.0
2017-Mar-20 03:33N 34°41' E 135°12'0 0.0
2017-Mar-20 02:33N 34°41' E 135°12'0 0.0
2017-Mar-20 01:33N 34°41' E 135°12'0 0.0
2017-Mar-20 00:33N 34°41' E 135°12'0 0.0
2017-Mar-19 23:33N 34°41' E 135°12'0 0.0
2017-Mar-19 22:33N 34°41' E 135°12'0 0.0
2017-Mar-19 02:11N 34°41' E 135°12'0 0.0
2017-Mar-19 01:33N 34°41' E 135°12'0 0.0
2017-Mar-19 00:33N 34°41' E 135°12'0 0.0
2017-Mar-18 01:07N 34°41' E 135°12'0 0.0
2017-Mar-18 00:33N 34°41' E 135°12'0 0.0
2017-Mar-15 23:33N 34°41' E 135°12'2 2.0
2017-Mar-15 22:33N 34°41' E 135°14'2 1.9
2017-Mar-15 21:33N 34°41' E 135°17'0 0.0
2017-Mar-15 20:33N 34°41' E 135°17'0 0.0
2017-Mar-15 19:33N 34°41' E 135°17'0 0.0
2017-Mar-15 18:33N 34°41' E 135°17'1 1.0
2017-Mar-15 17:33N 34°41' E 135°18'0 0.3
2017-Mar-15 16:33N 34°41' E 135°17'0 0.0
2017-Mar-15 15:33N 34°41' E 135°17'0 0.0
2017-Mar-15 14:33N 34°41' E 135°17'0 0.0
2017-Mar-15 13:33N 34°41' E 135°17'3 3.2
2017-Mar-15 12:33N 34°40' E 135°14'0 0.0
2017-Mar-15 11:33N 34°40' E 135°14'0 0.0
2017-Mar-15 10:33N 34°40' E 135°14'1 1.3
2017-Mar-15 09:33N 34°39' E 135°15'0 0.3
2017-Mar-15 08:33N 34°39' E 135°15'0 0.0
2017-Mar-15 07:33N 34°39' E 135°15'0 0.3
2017-Mar-15 06:33N 34°39' E 135°15'2 2.3
2017-Mar-15 05:33N 34°41' E 135°12'0 0.0
2017-Mar-15 04:33N 34°41' E 135°12'0 0.0
2017-Mar-15 03:33N 34°41' E 135°12'0 0.0
2017-Mar-15 02:33N 34°41' E 135°12'0 0.0
2017-Mar-15 01:33N 34°41' E 135°12'0 0.0
2017-Mar-15 00:33N 34°41' E 135°12'1 0.8
2017-Mar-14 23:33N 34°41' E 135°13'2 2.4
2017-Mar-14 22:33N 34°42' E 135°16'3 2.8
2017-Mar-14 21:33N 34°41' E 135°12'0 0.4
2017-Mar-14 20:33N 34°41' E 135°12'2 0.2
2017-Mar-14 07:33N 34°39' E 135°15'1 0.5
2017-Mar-14 06:33N 34°39' E 135°15'3 2.8
2017-Mar-14 05:33N 34°41' E 135°12'0 0.3
2017-Mar-14 04:33N 34°41' E 135°12'0 0.0
2017-Mar-14 03:33N 34°41' E 135°12'0 0.0
2017-Mar-14 02:33N 34°41' E 135°12'0 0.2
2017-Mar-14 01:33N 34°40' E 135°12'0 0.2
2017-Mar-14 00:33N 34°41' E 135°12'4 3.9
2017-Mar-13 23:33N 34°41' E 135°17'1 0.9
2017-Mar-13 22:33N 34°40' E 135°18'3 2.7
2017-Mar-13 21:33N 34°41' E 135°14'2 1.9
2017-Mar-13 20:33N 34°41' E 135°12'  

Dump ship's entire track history